Air Resources Laboratory banner image
Air Resources Laboratory web site National Oceanic and Atmospheric Administration (NOAA)

tn metar


KBNA 211053Z 01005KT 10SM CLR 02/M03 A3038 RMK AO2 SLP287 T00171033=
KCHA 211053Z 01017KT 10SM CLR 04/M04 A3030 RMK AO2 PK WND 01026/1041 SLP259
 T00441039=
KCKV 211052Z AUTO 35003KT 10SM CLR 01/M04 A3038 RMK AO2 SLP289 T00061044=
KCSV 211053Z AUTO 04010KT 10SM CLR M01/M04 A3029 RMK AO2 SLP260 T10061039=
KDYR 211056Z AUTO 01003KT 10SM CLR 02/M03 A3041 RMK AO2 SLP316 T00221028 FZRANO
 PNO $=
KHZD 211055Z AUTO 00000KT 10SM CLR 01/M01 A3038 RMK A01=
KMEM 211054Z 04008KT 10SM CLR 06/M02 A3037 RMK AO2 SLP285 T00561022=
KMKL 211053Z AUTO 04003KT 10SM CLR 01/M02 A3039 RMK AO2 SLP291 T00111017 $=
KMQY 211056Z AUTO 35006KT 10SM CLR 02/M03 A3038 RMK AO2 SLP266 T00221028=
KNQA 211050Z 02005KT 10SM CLR 03/M01 A3038=
KOQT 211053Z AUTO VRB04KT 10SM CLR 04/M02 A3032 RMK AO2 SLP270 T00391022 $=
KPHT 211055Z AUTO 01004KT 10SM CLR 01/M03 A3039 RMK A01=
KSNH 211055Z AUTO 01004KT 10SM CLR 03/M01 A3035 RMK A01=
KSZY 211055Z AUTO 03005KT 10SM CLR 02/M02 A3035 RMK A01=
KTRI 211053Z 34008KT 10SM OVC037 04/M02 A3025 RMK AO2 SLP236 T00391022=
KTYS 211053Z 06005KT 10SM FEW150 01/M03 A3029 RMK AO2 SLP257 T00111028=
KUCY 211055Z AUTO 02004KT 10SM CLR 01/M03 A3040 RMK A01=